createdAt,value
2018-12-10T00:00:33.967Z,6.10
2018-12-10T00:03:08.209Z,6.20
2018-12-10T00:05:36.932Z,6.10
2018-12-10T00:08:11.932Z,6.10
2018-12-10T00:10:41.737Z,6.20
2018-12-10T00:13:10.652Z,6.10
2018-12-10T00:18:08.536Z,6.10
2018-12-10T00:20:37.235Z,6.20
2018-12-10T00:23:12.078Z,6.20
2018-12-10T00:28:09.196Z,6.20
2018-12-10T00:30:43.912Z,6.20
2018-12-10T00:33:12.608Z,6.20
2018-12-10T00:38:09.680Z,6.30
2018-12-10T00:40:38.503Z,6.30
2018-12-10T00:43:07.180Z,6.40
2018-12-10T00:48:04.433Z,6.40
2018-12-10T00:50:33.131Z,6.40
2018-12-10T00:53:07.937Z,6.40
2018-12-10T00:55:36.629Z,6.50
2018-12-10T00:58:05.522Z,6.50
2018-12-10T01:00:34.255Z,6.50
2018-12-10T01:03:02.967Z,6.50
2018-12-10T01:05:31.648Z,6.50
2018-12-10T01:08:00.416Z,6.40
2018-12-10T01:10:29.116Z,6.40
2018-12-10T01:17:55.339Z,6.30
2018-12-10T01:20:24.007Z,6.40
2018-12-10T01:22:52.747Z,6.40
2018-12-10T01:25:21.495Z,6.40
2018-12-10T01:27:50.165Z,6.30
2018-12-10T01:30:25.080Z,6.40
2018-12-10T01:32:54.014Z,6.30
2018-12-10T01:35:22.733Z,6.20
2018-12-10T01:42:48.992Z,6.30
2018-12-10T01:47:51.156Z,6.30
2018-12-10T01:50:19.838Z,6.20
2018-12-10T01:52:54.723Z,6.20
2018-12-10T01:55:23.536Z,6.10
2018-12-10T01:57:52.279Z,6.20
2018-12-10T02:00:21.039Z,6.10
2018-12-10T02:07:46.633Z,6.00
2018-12-10T02:10:15.295Z,5.90
2018-12-10T02:15:12.425Z,5.80
2018-12-10T02:17:41.269Z,5.80
2018-12-10T02:20:10.905Z,5.80
2018-12-10T02:22:39.535Z,5.90
2018-12-10T02:25:08.299Z,5.90
2018-12-10T02:27:37.924Z,5.90
2018-12-10T02:30:06.768Z,5.90
2018-12-10T02:32:35.493Z,6.00
2018-12-10T02:35:04.539Z,6.10
2018-12-10T02:44:58.491Z,6.00
2018-12-10T02:52:29.897Z,6.00
2018-12-10T02:54:58.581Z,6.00
2018-12-10T02:57:27.344Z,6.00
2018-12-10T03:02:24.575Z,6.00
2018-12-10T03:07:28.024Z,6.00
2018-12-10T03:20:02.164Z,5.80
2018-12-10T03:22:30.872Z,5.90
2018-12-10T03:25:06.171Z,5.90
2018-12-10T03:30:09.549Z,5.80
2018-12-10T03:35:12.948Z,5.80
2018-12-10T03:37:48.000Z,5.80
2018-12-10T03:40:16.786Z,5.80
2018-12-10T03:45:20.136Z,5.80
2018-12-10T03:47:48.900Z,5.80
2018-12-10T03:50:17.659Z,5.80
2018-12-10T03:52:46.567Z,5.90
2018-12-10T03:57:50.636Z,5.80
2018-12-10T04:02:54.048Z,5.80
2018-12-10T04:05:29.007Z,5.70
2018-12-10T04:08:03.828Z,5.70
2018-12-10T04:13:01.071Z,5.70
2018-12-10T04:20:40.179Z,5.50
2018-12-10T04:23:08.884Z,5.40
2018-12-10T04:25:37.582Z,5.30
2018-12-10T04:28:06.318Z,5.40
2018-12-10T04:30:35.056Z,5.40
2018-12-10T04:33:03.752Z,5.30
2018-12-10T04:35:32.707Z,5.30
2018-12-10T04:40:30.581Z,5.30
2018-12-10T04:42:59.269Z,5.40
2018-12-10T04:45:34.233Z,5.40
2018-12-10T04:48:06.947Z,5.40
2018-12-10T04:50:35.707Z,5.40
2018-12-10T04:53:04.469Z,5.40
2018-12-10T04:55:39.553Z,5.40
2018-12-10T04:58:08.256Z,5.50
2018-12-10T05:00:37.009Z,5.50
2018-12-10T05:03:11.939Z,5.50
2018-12-10T05:08:09.835Z,5.60
2018-12-10T05:10:38.527Z,5.60
2018-12-10T05:13:07.241Z,5.60
2018-12-10T05:18:04.473Z,5.60
2018-12-10T05:20:33.212Z,5.70
2018-12-10T05:23:02.083Z,5.70
2018-12-10T05:25:31.010Z,5.70
2018-12-10T05:27:59.748Z,5.70
2018-12-10T05:30:28.511Z,5.80
2018-12-10T05:38:00.100Z,5.70
2018-12-10T05:43:03.426Z,5.60
2018-12-10T05:45:38.327Z,5.70
2018-12-10T05:50:41.635Z,5.70
2018-12-10T05:53:10.411Z,5.60
2018-12-10T05:55:39.097Z,5.60
2018-12-10T06:00:42.544Z,5.60
2018-12-10T06:03:11.177Z,5.60
2018-12-10T06:05:39.920Z,5.60
2018-12-10T06:08:14.828Z,5.60
2018-12-10T06:10:43.524Z,5.60
2018-12-10T06:13:12.236Z,5.60
2018-12-10T06:15:40.947Z,5.60
2018-12-10T06:20:44.327Z,5.60
2018-12-10T06:25:41.480Z,5.70
2018-12-10T06:28:16.339Z,5.70
2018-12-10T06:30:45.038Z,5.70
2018-12-10T06:33:14.564Z,5.70
2018-12-10T06:35:44.118Z,5.50
2018-12-10T06:38:12.908Z,5.40
2018-12-10T06:43:10.288Z,5.40
2018-12-10T06:45:39.088Z,5.40
2018-12-10T06:50:48.419Z,5.40
2018-12-10T06:53:17.107Z,5.50
2018-12-10T06:55:45.893Z,5.50
2018-12-10T06:58:14.587Z,5.50
2018-12-10T07:00:43.280Z,5.50
2018-12-10T07:03:18.097Z,5.50
2018-12-10T07:05:46.897Z,5.50
2018-12-10T07:10:44.939Z,5.60
2018-12-10T07:13:18.675Z,5.50
2018-12-10T07:15:47.368Z,5.50
2018-12-10T07:18:16.067Z,5.40
2018-12-10T07:20:44.780Z,5.40
2018-12-10T07:23:19.602Z,5.40
2018-12-10T07:25:54.503Z,5.40
2018-12-10T07:28:23.200Z,5.40
2018-12-10T07:30:52.106Z,5.40
2018-12-10T07:33:21.583Z,5.40
2018-12-10T07:35:50.359Z,5.40
2018-12-10T07:38:19.127Z,5.40
2018-12-10T07:40:54.099Z,5.40
2018-12-10T07:43:28.981Z,5.40
2018-12-10T07:46:04.080Z,5.40
2018-12-10T07:48:32.803Z,5.50
2018-12-10T07:51:01.627Z,5.40
2018-12-10T07:53:30.368Z,5.50
2018-12-10T07:55:59.160Z,5.50
2018-12-10T07:58:34.133Z,5.60
2018-12-10T08:01:02.839Z,5.50
2018-12-10T08:03:37.627Z,5.60
2018-12-10T08:06:06.399Z,5.60
2018-12-10T08:08:37.087Z,5.60
2018-12-10T08:11:12.064Z,5.60
2018-12-10T08:13:40.776Z,5.60
2018-12-10T08:16:09.492Z,5.70
2018-12-10T08:18:38.144Z,5.70
2018-12-10T08:21:06.986Z,5.70
2018-12-10T08:23:35.740Z,5.70
2018-12-10T08:26:04.441Z,5.70
2018-12-10T08:28:39.855Z,5.60
2018-12-10T08:31:08.616Z,5.60
2018-12-10T08:33:43.618Z,5.60
2018-12-10T08:36:12.312Z,5.80
2018-12-10T08:38:40.996Z,5.80
2018-12-10T08:41:09.691Z,5.80
2018-12-10T08:43:38.385Z,5.80
2018-12-10T08:46:07.071Z,5.80
2018-12-10T08:48:35.827Z,5.90
2018-12-10T08:51:10.777Z,5.90
2018-12-10T08:53:40.263Z,5.80
2018-12-10T08:56:15.192Z,5.80
2018-12-10T08:58:43.936Z,5.80
2018-12-10T09:01:16.642Z,5.80
2018-12-10T09:03:45.335Z,5.90
2018-12-10T09:06:14.037Z,5.90
2018-12-10T09:11:23.553Z,5.90
2018-12-10T09:16:24.760Z,5.90
2018-12-10T09:21:22.732Z,5.90
2018-12-10T09:23:51.479Z,6.10
2018-12-10T09:26:26.563Z,6.10
2018-12-10T09:28:55.291Z,6.10
2018-12-10T09:33:53.224Z,6.10
2018-12-10T09:36:25.088Z,6.10
2018-12-10T09:38:53.787Z,6.10
2018-12-10T09:41:22.478Z,6.10
2018-12-10T09:43:51.293Z,6.00
2018-12-10T09:46:27.649Z,6.00
2018-12-10T09:49:02.785Z,6.00
2018-12-10T09:51:31.554Z,6.00
2018-12-10T09:54:00.208Z,6.10
2018-12-10T09:56:29.061Z,6.10
2018-12-10T09:58:57.732Z,6.10
2018-12-10T10:01:26.487Z,6.20
2018-12-10T10:03:55.247Z,6.20
2018-12-10T10:06:24.100Z,6.10
2018-12-10T10:08:52.841Z,6.20
2018-12-10T10:13:56.336Z,6.30
2018-12-10T10:16:25.127Z,6.30
2018-12-10T10:18:59.872Z,6.50
2018-12-10T10:21:28.602Z,6.50
2018-12-10T10:23:57.288Z,6.50
2018-12-10T10:26:26.166Z,6.50
2018-12-10T10:31:23.346Z,6.50
2018-12-10T10:33:58.303Z,6.60
2018-12-10T10:36:27.155Z,6.50
2018-12-10T10:38:55.824Z,6.50
2018-12-10T10:41:31.421Z,6.60
2018-12-10T10:44:02.008Z,6.60
2018-12-10T10:46:31.085Z,6.60
2018-12-10T10:48:59.775Z,6.60
2018-12-10T10:51:28.686Z,6.60
2018-12-10T10:53:57.468Z,6.70
2018-12-10T10:56:26.271Z,6.60
2018-12-10T10:58:55.066Z,6.60
2018-12-10T11:01:30.095Z,6.60
2018-12-10T11:04:05.035Z,6.70
2018-12-10T11:09:15.186Z,6.70
2018-12-10T11:11:45.413Z,6.70
2018-12-10T11:14:14.203Z,6.80
2018-12-10T11:16:42.903Z,6.80
2018-12-10T11:19:11.575Z,6.90
2018-12-10T11:21:40.372Z,6.80
2018-12-10T11:24:15.171Z,6.80
2018-12-10T11:26:43.943Z,6.80
2018-12-10T11:29:12.676Z,6.70
2018-12-10T11:31:41.576Z,6.70
2018-12-10T11:34:10.267Z,6.70
2018-12-10T11:36:39.149Z,6.70
2018-12-10T11:39:07.920Z,6.60
2018-12-10T11:41:42.931Z,6.60
2018-12-10T11:44:11.654Z,6.40
2018-12-10T11:46:40.362Z,6.30
2018-12-10T11:49:12.075Z,6.30
2018-12-10T11:51:40.815Z,6.20
2018-12-10T11:54:15.717Z,6.20
2018-12-10T12:01:54.271Z,6.00
2018-12-10T12:04:23.168Z,5.90
2018-12-10T12:06:57.992Z,5.90
2018-12-10T12:12:03.157Z,5.40
2018-12-10T12:14:38.302Z,5.90
2018-12-10T12:17:07.072Z,6.00
2018-12-10T12:19:35.864Z,6.00
2018-12-10T12:22:10.826Z,6.10
2018-12-10T12:24:39.682Z,6.10
2018-12-10T12:27:08.423Z,6.20
2018-12-10T12:29:43.192Z,6.20
2018-12-10T12:34:46.908Z,6.30
2018-12-10T12:39:56.720Z,6.40
2018-12-10T12:42:31.740Z,6.30
2018-12-10T12:45:00.468Z,6.30
2018-12-10T12:47:29.263Z,6.30
2018-12-10T12:50:04.138Z,6.30
2018-12-10T12:52:32.852Z,6.30
2018-12-10T12:55:01.595Z,6.20
2018-12-10T12:57:36.597Z,6.20
2018-12-10T13:00:05.629Z,6.20
2018-12-10T13:02:40.736Z,6.10
2018-12-10T13:05:09.595Z,6.10
2018-12-10T13:07:44.709Z,6.00
2018-12-10T13:10:19.653Z,6.10
2018-12-10T13:12:48.435Z,6.00
2018-12-10T13:15:23.271Z,6.00
2018-12-10T13:20:26.804Z,6.00
2018-12-10T13:22:55.479Z,5.90
2018-12-10T13:25:24.156Z,5.90
2018-12-10T13:27:52.859Z,5.90
2018-12-10T13:35:24.563Z,6.00
2018-12-10T13:40:28.003Z,6.10
2018-12-10T13:45:25.076Z,6.00
2018-12-10T13:50:22.961Z,6.00
2018-12-10T13:52:57.875Z,6.00
2018-12-10T13:58:02.980Z,6.00
2018-12-10T14:00:31.750Z,6.00
2018-12-10T14:03:07.000Z,6.00
2018-12-10T14:05:35.679Z,6.00
2018-12-10T14:08:10.815Z,6.00
2018-12-10T14:13:14.379Z,6.00
2018-12-10T14:18:18.466Z,6.00
2018-12-10T14:20:47.155Z,6.00
2018-12-10T14:23:16.074Z,5.90
2018-12-10T14:25:44.813Z,5.80
2018-12-10T14:28:19.646Z,5.80
2018-12-10T14:30:54.656Z,5.70
2018-12-10T14:33:25.280Z,5.70
2018-12-10T14:35:54.758Z,5.70
2018-12-10T14:40:58.032Z,5.60
2018-12-10T14:43:26.731Z,5.60
2018-12-10T14:45:56.303Z,5.60
2018-12-10T14:48:25.919Z,5.60
2018-12-10T14:50:54.727Z,5.70
2018-12-10T14:53:24.307Z,5.70
2018-12-10T14:55:53.057Z,5.70
2018-12-10T14:58:21.757Z,5.60
2018-12-10T15:00:50.496Z,5.70
2018-12-10T15:03:19.155Z,5.60
2018-12-10T15:05:47.919Z,5.60
2018-12-10T15:08:16.707Z,5.60
2018-12-10T15:13:20.109Z,5.60
2018-12-10T15:15:54.963Z,5.60
2018-12-10T15:20:58.108Z,5.60
2018-12-10T15:23:32.999Z,5.60
2018-12-10T15:26:02.572Z,5.60
2018-12-10T15:28:37.380Z,5.60
2018-12-10T15:31:06.065Z,5.50
2018-12-10T15:33:34.735Z,5.50
2018-12-10T15:38:38.003Z,5.50
2018-12-10T15:41:06.892Z,5.40
2018-12-10T15:48:38.856Z,5.50
2018-12-10T15:51:07.600Z,5.50
2018-12-10T15:56:10.796Z,5.40
2018-12-10T16:01:08.148Z,5.40
2018-12-10T16:03:39.818Z,5.30
2018-12-10T16:06:08.553Z,5.30
2018-12-10T16:11:11.744Z,5.30
2018-12-10T16:13:46.648Z,5.30
2018-12-10T16:16:15.467Z,5.30
2018-12-10T16:21:18.754Z,5.40
2018-12-10T16:23:47.535Z,5.40
2018-12-10T16:26:16.240Z,5.40
2018-12-10T16:28:44.876Z,5.40
2018-12-10T16:31:13.539Z,5.40
2018-12-10T16:33:48.384Z,5.30
2018-12-10T16:36:17.275Z,5.40
2018-12-10T16:38:56.027Z,5.20
2018-12-10T16:43:59.236Z,5.10
2018-12-10T16:46:34.123Z,5.10
2018-12-10T16:49:08.999Z,5.00
2018-12-10T16:51:43.923Z,5.00
2018-12-10T16:54:12.663Z,5.00
2018-12-10T16:56:41.356Z,4.90
2018-12-10T16:59:10.060Z,4.90
2018-12-10T17:01:44.967Z,4.80
2018-12-10T17:06:42.103Z,4.70
2018-12-10T17:11:47.393Z,4.60
2018-12-10T17:14:16.378Z,4.50
2018-12-10T17:16:45.080Z,4.50
2018-12-10T17:21:48.787Z,4.50
2018-12-10T17:26:52.256Z,4.50
2018-12-10T17:29:28.465Z,4.50
2018-12-10T17:37:01.101Z,4.50
2018-12-10T17:39:36.007Z,4.50
2018-12-10T17:49:43.859Z,4.70
2018-12-10T17:52:18.744Z,4.80
2018-12-10T17:54:53.657Z,4.90
2018-12-10T17:57:22.481Z,4.90
2018-12-10T17:59:51.397Z,4.90
2018-12-10T18:02:20.180Z,4.80
2018-12-10T18:09:58.163Z,4.70
2018-12-10T18:14:56.027Z,4.70
2018-12-10T18:17:30.780Z,4.80
2018-12-10T18:19:59.524Z,4.70
2018-12-10T18:30:12.724Z,4.70
2018-12-10T18:35:27.855Z,4.80
2018-12-10T18:37:56.556Z,4.80
2018-12-10T18:40:25.230Z,4.80
2018-12-10T18:43:00.308Z,4.80
2018-12-10T18:45:29.122Z,4.80
2018-12-10T18:47:57.813Z,4.90
2018-12-10T18:50:32.568Z,4.90
2018-12-10T18:53:07.604Z,4.90
2018-12-10T18:55:36.299Z,4.90
2018-12-10T18:58:11.296Z,4.90
2018-12-10T19:00:39.983Z,5.00
2018-12-10T19:03:08.787Z,5.00
2018-12-10T19:05:43.823Z,5.00
2018-12-10T19:10:48.160Z,4.80
2018-12-10T19:13:16.920Z,4.80
2018-12-10T19:15:51.800Z,4.70
2018-12-10T19:20:53.865Z,4.60
2018-12-10T19:25:51.083Z,4.40
2018-12-10T19:28:19.788Z,4.40
2018-12-10T19:33:23.208Z,4.30
2018-12-10T19:35:51.951Z,4.30
2018-12-10T19:43:24.458Z,4.10
2018-12-10T19:50:50.075Z,4.20
2018-12-10T19:53:18.819Z,4.10
2018-12-10T19:55:53.779Z,4.10
2018-12-10T19:58:22.487Z,4.00
2018-12-10T20:00:51.348Z,4.00
2018-12-10T20:03:26.380Z,4.00
2018-12-10T20:06:06.855Z,4.00
2018-12-10T20:08:35.575Z,3.90
2018-12-10T20:11:04.711Z,4.00
2018-12-10T20:13:33.480Z,4.10
2018-12-10T20:16:02.187Z,4.10
2018-12-10T20:18:32.863Z,4.10
2018-12-10T20:23:36.214Z,4.10
2018-12-10T20:26:05.017Z,4.20
2018-12-10T20:28:39.874Z,4.20
2018-12-10T20:31:08.714Z,4.20
2018-12-10T20:33:37.486Z,4.30
2018-12-10T20:36:12.444Z,4.30
2018-12-10T20:38:41.209Z,4.40
2018-12-10T20:43:38.364Z,4.50
2018-12-10T20:46:13.287Z,4.50
2018-12-10T20:48:48.261Z,4.50
2018-12-10T20:51:17.031Z,4.60
2018-12-10T20:53:51.915Z,4.60
2018-12-10T20:56:20.702Z,4.60
2018-12-10T20:58:55.753Z,4.70
2018-12-10T21:01:25.256Z,4.70
2018-12-10T21:03:54.019Z,4.70
2018-12-10T21:06:28.976Z,4.70
2018-12-10T21:11:34.658Z,4.70
2018-12-10T21:14:03.495Z,4.70
2018-12-10T21:16:38.486Z,4.70
2018-12-10T21:19:07.229Z,4.70
2018-12-10T21:21:42.661Z,4.80
2018-12-10T21:24:11.448Z,4.70
2018-12-10T21:26:46.457Z,4.70
2018-12-10T21:29:15.230Z,4.80
2018-12-10T21:31:43.946Z,4.80
2018-12-10T21:34:12.949Z,4.80
2018-12-10T21:36:41.648Z,4.80
2018-12-10T21:39:10.383Z,4.80
2018-12-10T21:41:39.253Z,4.80
2018-12-10T21:44:07.994Z,4.80
2018-12-10T21:46:39.171Z,4.90
2018-12-10T21:49:07.898Z,4.80
2018-12-10T21:51:36.649Z,4.90
2018-12-10T21:54:05.430Z,4.80
2018-12-10T21:56:35.063Z,4.70
2018-12-10T21:59:03.851Z,4.70
2018-12-10T22:01:32.712Z,4.70
2018-12-10T22:04:01.473Z,4.70
2018-12-10T22:06:30.365Z,4.80
2018-12-10T22:09:05.973Z,4.80
2018-12-10T22:11:34.812Z,4.80
2018-12-10T22:14:09.638Z,4.70
2018-12-10T22:16:44.557Z,4.70
2018-12-10T22:19:14.212Z,4.70
2018-12-10T22:21:49.973Z,4.70
2018-12-10T22:24:19.167Z,4.70
2018-12-10T22:26:48.817Z,4.70
2018-12-10T22:29:17.622Z,4.80
2018-12-10T22:31:52.608Z,4.80
2018-12-10T22:34:27.655Z,4.80
2018-12-10T22:36:56.532Z,4.80
2018-12-10T22:39:26.032Z,4.80
2018-12-10T22:42:01.115Z,4.80
2018-12-10T22:44:36.072Z,4.80
2018-12-10T22:47:04.904Z,4.90
2018-12-10T22:49:33.685Z,4.90
2018-12-10T22:52:06.305Z,4.80
2018-12-10T22:54:35.072Z,4.90
2018-12-10T22:57:03.887Z,4.80
2018-12-10T23:04:36.217Z,4.80
2018-12-10T23:07:04.971Z,4.90
2018-12-10T23:09:33.724Z,4.90
2018-12-10T23:12:02.502Z,4.90
2018-12-10T23:14:31.275Z,4.90
2018-12-10T23:17:06.312Z,4.90
2018-12-10T23:19:35.072Z,4.90
2018-12-10T23:22:04.747Z,4.90
2018-12-10T23:27:05.029Z,5.00
2018-12-10T23:32:02.304Z,5.00
2018-12-10T23:34:37.213Z,5.00
2018-12-10T23:37:05.919Z,5.00
2018-12-10T23:42:09.275Z,5.00
2018-12-10T23:44:49.557Z,5.00
2018-12-10T23:49:52.997Z,5.00
2018-12-10T23:52:22.499Z,5.00
2018-12-10T23:54:51.248Z,5.00
2018-12-10T23:57:26.029Z,5.00
2018-12-10T23:59:54.723Z,5.00
